Time;durP1;ratioP1;P1;durP2;ratioP2;P2;SDS_P1;SDS_P2;PMS_P1;PMS_P2;Temp;Humidity;BMP_temperature;BMP_pressure;BME280_temperature;BME280_humidity;BME280_pressure;Samples;Min_cycle;Max_cycle;Signal;HPM_P1;HPM_P2
2024/01/28 00:00:28;;;;;;;5.80;2.60;;;4.00;6.90;;;;;;5226324;28;20040;-32
2024/01/28 00:02:59;;;;;;;7.18;2.45;;;3.90;14.80;;;;;;5231629;28;20206;-33
2024/01/28 00:05:32;;;;;;;3.97;2.13;;;3.90;7.80;;;;;;5243734;28;20312;-31
2024/01/28 00:08:04;;;;;;;5.30;2.35;;;3.90;6.90;;;;;;5248227;28;20024;-32
2024/01/28 00:10:35;;;;;;;6.15;2.70;;;3.90;10.50;;;;;;5248049;28;20028;-32
2024/01/28 00:13:06;;;;;;;6.95;2.60;;;3.80;11.40;;;;;;5246765;28;20334;-33
2024/01/28 00:15:38;;;;;;;10.15;2.75;;;3.80;18.80;;;;;;5244540;28;20032;-31
2024/01/28 00:18:09;;;;;;;11.40;2.85;;;3.70;16.40;;;;;;5235343;28;20027;-32
2024/01/28 00:20:40;;;;;;;8.30;3.58;;;3.60;22.60;;;;;;5242432;28;20046;-32
2024/01/28 00:23:11;;;;;;;4.43;2.40;;;3.60;15.00;;;;;;5247466;28;20028;-33
2024/01/28 00:25:42;;;;;;;5.18;2.40;;;3.70;1.80;;;;;;5247765;28;20290;-33
2024/01/28 00:28:13;;;;;;;7.95;2.70;;;3.70;3.70;;;;;;5244141;28;20031;-33
2024/01/28 00:30:45;;;;;;;5.82;2.38;;;3.60;9.80;;;;;;5243149;28;20039;-32
2024/01/28 00:33:16;;;;;;;3.10;2.13;;;3.70;6.00;;;;;;5240426;28;20154;-33
2024/01/28 00:35:47;;;;;;;4.32;2.50;;;3.70;5.70;;;;;;5247023;28;20032;-32
2024/01/28 00:38:18;;;;;;;9.63;4.03;;;3.80;10.70;;;;;;5247113;28;20133;-33
2024/01/28 00:40:49;;;;;;;10.48;3.15;;;3.70;13.70;;;;;;5246830;28;20028;-32
2024/01/28 00:43:21;;;;;;;5.18;2.33;;;3.70;10.60;;;;;;5247601;28;20046;-32
2024/01/28 00:45:52;;;;;;;5.90;3.30;;;3.70;8.60;;;;;;5245097;28;20045;-34
2024/01/28 00:48:23;;;;;;;8.02;2.58;;;3.60;10.80;;;;;;5238982;28;20188;-32
2024/01/28 00:50:54;;;;;;;6.20;3.13;;;3.60;9.80;;;;;;5234466;28;20138;-33
2024/01/28 00:53:26;;;;;;;5.88;2.13;;;3.60;16.00;;;;;;5228690;28;20025;-32
2024/01/28 00:55:57;;;;;;;6.60;2.70;;;3.60;1.00;;;;;;5232422;28;20028;-33
2024/01/28 00:58:29;;;;;;;6.63;2.63;;;3.60;5.20;;;;;;5230694;28;20024;-33
2024/01/28 01:01:00;;;;;;;5.10;2.00;;;3.60;13.30;;;;;;5213586;28;20059;-33
2024/01/28 01:03:31;;;;;;;6.72;2.70;;;3.60;13.70;;;;;;5243943;28;20049;-33
2024/01/28 01:06:03;;;;;;;3.30;2.13;;;3.50;11.80;;;;;;5264981;28;20023;-32
2024/01/28 01:08:34;;;;;;;7.63;2.75;;;3.50;17.00;;;;;;5255516;28;20111;-32
2024/01/28 01:11:08;;;;;;;4.97;2.50;;;3.50;16.60;;;;;;5247026;28;20020;-33
2024/01/28 01:13:39;;;;;;;5.68;2.40;;;3.40;21.00;;;;;;5247736;28;20026;-32
2024/01/28 01:16:10;;;;;;;6.47;2.67;;;3.40;11.70;;;;;;5249966;28;20039;-32
2024/01/28 01:18:41;;;;;;;4.03;2.30;;;3.40;11.40;;;;;;5244554;28;20228;-33
2024/01/28 01:21:13;;;;;;;5.93;2.58;;;3.40;21.90;;;;;;5234624;28;20247;-32
2024/01/28 01:23:44;;;;;;;9.07;3.25;;;3.40;26.40;;;;;;5245661;28;20043;-33
2024/01/28 01:26:15;;;;;;;4.07;2.60;;;3.40;26.20;;;;;;5245802;28;20351;-33
2024/01/28 01:28:46;;;;;;;5.78;2.85;;;3.30;21.70;;;;;;5232672;28;20032;-33
2024/01/28 01:31:17;;;;;;;6.35;2.55;;;3.30;32.80;;;;;;5243709;28;20336;-32
2024/01/28 01:33:49;;;;;;;7.35;2.72;;;3.20;56.00;;;;;;5236736;28;20020;-32
2024/01/28 01:36:20;;;;;;;5.43;2.13;;;3.20;63.70;;;;;;5228358;28;20028;-35
2024/01/28 01:38:51;;;;;;;6.40;2.90;;;3.10;55.20;;;;;;5228454;28;20042;-33
2024/01/28 01:41:25;;;;;;;6.90;2.67;;;3.10;50.90;;;;;;5246615;28;20035;-33
2024/01/28 01:43:59;;;;;;;;;;;3.00;47.20;;;;;;5245801;28;20032;-33
2024/01/28 01:46:31;;;;;;;6.10;2.63;;;3.10;56.50;;;;;;5263678;28;20133;-32
2024/01/28 01:49:02;;;;;;;6.28;2.30;;;3.10;68.50;;;;;;5251685;28;20032;-33
2024/01/28 01:51:34;;;;;;;6.28;2.72;;;2.90;59.20;;;;;;5220174;28;20307;-32
2024/01/28 01:54:06;;;;;;;4.57;2.35;;;2.80;73.30;;;;;;5233525;28;20209;-33
2024/01/28 01:56:38;;;;;;;7.30;2.63;;;2.80;61.00;;;;;;5237702;28;20423;-33
2024/01/28 01:59:09;;;;;;;7.05;3.17;;;2.70;90.20;;;;;;5236122;28;20361;-32
2024/01/28 02:01:42;;;;;;;6.68;3.63;;;2.70;81.40;;;;;;5228207;28;20340;-35
2024/01/28 02:04:13;;;;;;;8.20;3.00;;;2.60;85.80;;;;;;5244133;28;20028;-33
2024/01/28 02:06:44;;;;;;;7.88;3.00;;;2.60;86.70;;;;;;5243507;28;20039;-33
2024/01/28 02:09:15;;;;;;;4.30;2.97;;;2.60;88.80;;;;;;5227198;28;20044;-33
2024/01/28 02:11:47;;;;;;;8.05;2.92;;;2.50;99.90;;;;;;5224719;28;20029;-33
2024/01/28 02:14:27;;;;;;;5.63;2.97;;;2.50;97.70;;;;;;5235875;28;20023;-32
2024/01/28 02:16:59;;;;;;;6.25;2.70;;;2.50;95.90;;;;;;5242368;28;20020;-32
2024/01/28 02:19:30;;;;;;;4.93;2.60;;;2.50;99.90;;;;;;5246834;28;20028;-32
2024/01/28 02:22:01;;;;;;;6.25;2.80;;;2.50;99.90;;;;;;5248012;28;20016;-32
2024/01/28 02:24:32;;;;;;;8.20;2.80;;;2.50;99.90;;;;;;5226437;28;20028;-33
2024/01/28 02:27:04;;;;;;;5.18;2.60;;;2.50;99.90;;;;;;5224074;28;20028;-33
2024/01/28 02:29:35;;;;;;;5.97;2.95;;;2.50;99.90;;;;;;5241756;28;20032;-32
2024/01/28 02:32:06;;;;;;;7.28;2.95;;;2.60;98.50;;;;;;5223751;28;20422;-32
2024/01/28 02:34:37;;;;;;;4.53;2.88;;;2.60;99.90;;;;;;5246049;28;20311;-32
2024/01/28 02:37:12;;;;;;;3.47;2.50;;;2.60;94.80;;;;;;5267025;28;20028;-32
2024/01/28 02:39:43;;;;;;;3.70;2.88;;;2.60;99.90;;;;;;5262854;28;20043;-34
2024/01/28 02:42:14;;;;;;;7.30;2.72;;;2.60;99.90;;;;;;5233113;28;20036;-32
2024/01/28 02:44:45;;;;;;;8.30;3.28;;;2.60;99.90;;;;;;5231181;28;20054;-32
2024/01/28 02:47:17;;;;;;;8.13;2.72;;;2.60;99.70;;;;;;5241594;28;20031;-33
2024/01/28 02:49:48;;;;;;;5.50;2.65;;;2.60;64.40;;;;;;5235432;28;20330;-32
2024/01/28 02:52:20;;;;;;;4.13;2.22;;;2.60;56.50;;;;;;5232039;28;20032;-33
2024/01/28 02:54:51;;;;;;;4.25;2.30;;;2.60;52.10;;;;;;5229393;28;20032;-32
2024/01/28 02:57:22;;;;;;;7.00;2.60;;;2.60;54.10;;;;;;5243069;28;20038;-32
2024/01/28 02:59:53;;;;;;;10.40;2.60;;;2.70;53.10;;;;;;5225519;28;20580;-33
2024/01/28 03:02:25;;;;;;;6.78;2.25;;;2.70;42.40;;;;;;5239892;28;20036;-32
2024/01/28 03:04:57;;;;;;;4.97;2.13;;;2.80;28.20;;;;;;5222794;28;20029;-33
2024/01/28 03:07:28;;;;;;;3.85;2.22;;;2.80;32.10;;;;;;5234013;28;20059;-32
2024/01/28 03:10:00;;;;;;;5.47;2.13;;;2.90;36.90;;;;;;5233339;28;20034;-32
2024/01/28 03:12:31;;;;;;;7.85;2.85;;;2.90;20.40;;;;;;5236964;28;20292;-33
2024/01/28 03:15:03;;;;;;;6.57;2.60;;;3.00;22.00;;;;;;5226960;28;20039;-33
2024/01/28 03:17:35;;;;;;;5.88;2.35;;;2.90;29.20;;;;;;5240380;28;20040;-32
2024/01/28 03:20:06;;;;;;;5.80;2.60;;;3.00;35.20;;;;;;5244357;28;20481;-33
2024/01/28 03:22:39;;;;;;;6.93;2.60;;;2.90;39.80;;;;;;5245822;28;20197;-33
2024/01/28 03:25:12;;;;;;;5.72;2.80;;;2.90;29.90;;;;;;5226842;28;20026;-33
2024/01/28 03:27:43;;;;;;;8.10;2.70;;;2.90;47.10;;;;;;5238121;28;20036;-32
2024/01/28 03:30:15;;;;;;;10.23;2.85;;;2.90;27.00;;;;;;5238471;28;20114;-33
2024/01/28 03:32:46;;;;;;;9.27;3.08;;;2.80;36.30;;;;;;5238771;28;20029;-33
2024/01/28 03:35:17;;;;;;;7.40;2.60;;;2.80;31.60;;;;;;5250257;28;20209;-32
2024/01/28 03:37:48;;;;;;;7.95;2.60;;;2.70;48.50;;;;;;5258627;28;20023;-32
2024/01/28 03:40:20;;;;;;;6.53;2.72;;;2.70;44.30;;;;;;5239416;28;20028;-32
2024/01/28 03:42:51;;;;;;;5.30;2.95;;;2.70;47.70;;;;;;5229186;28;20028;-32
2024/01/28 03:45:22;;;;;;;5.90;2.65;;;2.70;35.90;;;;;;5241026;28;20036;-32
2024/01/28 03:47:53;;;;;;;8.63;2.63;;;2.70;44.80;;;;;;5246318;28;20028;-32
2024/01/28 03:50:24;;;;;;;8.60;2.78;;;2.60;62.90;;;;;;5251472;28;20039;-32
2024/01/28 03:53:14;;;;;;;4.90;2.72;;;2.60;55.00;;;;;;5236848;28;20039;-33
2024/01/28 03:55:45;;;;;;;4.72;2.80;;;2.60;62.80;;;;;;5248561;28;20031;-33
2024/01/28 03:58:16;;;;;;;5.95;2.67;;;2.60;59.40;;;;;;5231892;28;20039;-32
2024/01/28 04:00:48;;;;;;;10.18;3.15;;;2.60;99.90;;;;;;5258842;28;20042;-32
2024/01/28 04:03:19;;;;;;;5.82;2.83;;;2.50;50.30;;;;;;5251885;28;20039;-32
2024/01/28 04:05:50;;;;;;;5.40;3.13;;;2.50;47.70;;;;;;5267703;28;20353;-32
2024/01/28 04:08:21;;;;;;;6.85;3.08;;;2.60;70.20;;;;;;5270020;28;20364;-33
2024/01/28 04:10:53;;;;;;;7.47;3.00;;;2.60;85.60;;;;;;5259844;28;20030;-33
2024/01/28 04:13:24;;;;;;;8.75;2.70;;;2.60;60.80;;;;;;5247600;28;20407;-32
2024/01/28 04:15:55;;;;;;;6.22;2.95;;;2.60;91.90;;;;;;5248427;28;20050;-35
2024/01/28 04:18:26;;;;;;;10.55;3.08;;;2.50;67.50;;;;;;5252323;28;20349;-32
2024/01/28 04:20:58;;;;;;;6.80;2.47;;;2.50;47.70;;;;;;5247879;27;20392;-32
2024/01/28 04:23:29;;;;;;;7.13;2.60;;;2.50;53.40;;;;;;5238811;28;20019;-32
2024/01/28 04:26:00;;;;;;;6.40;2.97;;;2.50;93.80;;;;;;5244423;28;20020;-33
2024/01/28 04:28:31;;;;;;;10.20;3.13;;;2.40;74.00;;;;;;5256465;28;20015;-33
2024/01/28 04:31:03;;;;;;;8.27;2.90;;;2.40;64.70;;;;;;5245007;28;20207;-33
2024/01/28 04:33:35;;;;;;;3.38;2.20;;;2.40;62.70;;;;;;5259722;28;20038;-33
2024/01/28 04:36:06;;;;;;;6.70;2.78;;;2.40;84.20;;;;;;5271109;28;20393;-33
2024/01/28 04:38:37;;;;;;;9.07;2.80;;;2.40;53.30;;;;;;5270518;28;20039;-32
2024/01/28 04:41:09;;;;;;;8.38;2.40;;;2.40;55.10;;;;;;5271488;28;20609;-35
2024/01/28 04:43:41;;;;;;;6.93;2.47;;;2.40;42.40;;;;;;5270576;28;20028;-32
2024/01/28 04:46:18;;;;;;;9.25;3.35;;;2.40;43.60;;;;;;5252783;28;20032;-32
2024/01/28 04:48:49;;;;;;;5.90;2.80;;;2.40;28.50;;;;;;5260908;28;20405;-33
2024/01/28 04:51:20;;;;;;;8.25;2.75;;;2.50;16.50;;;;;;5257057;28;20035;-33
2024/01/28 04:53:52;;;;;;;4.43;2.58;;;2.50;24.20;;;;;;5267995;28;20019;-33
2024/01/28 04:56:23;;;;;;;6.22;2.88;;;2.60;14.40;;;;;;5269836;28;20027;-33
2024/01/28 04:58:54;;;;;;;8.85;2.65;;;2.60;13.90;;;;;;5267084;28;20030;-32
2024/01/28 05:01:25;;;;;;;9.57;2.55;;;2.70;8.80;;;;;;5235924;28;20042;-32
2024/01/28 05:03:57;;;;;;;7.95;2.50;;;2.70;4.00;;;;;;5234061;28;20039;-33
2024/01/28 05:06:34;;;;;;;6.90;2.63;;;2.70;17.60;;;;;;5231481;28;20224;-33
2024/01/28 05:09:07;;;;;;;6.70;2.38;;;2.70;5.80;;;;;;5236120;28;20035;-32
2024/01/28 05:11:38;;;;;;;4.82;2.55;;;2.80;1.00;;;;;;5240323;28;20020;-33
2024/01/28 05:14:09;;;;;;;3.25;2.70;;;2.80;1.00;;;;;;5246746;28;20414;-33
2024/01/28 05:16:41;;;;;;;4.68;2.95;;;2.80;4.50;;;;;;5242363;28;20023;-33
2024/01/28 05:19:13;;;;;;;7.63;2.33;;;2.70;12.80;;;;;;5241178;28;20030;-33
2024/01/28 05:21:44;;;;;;;7.88;3.33;;;2.70;2.80;;;;;;5245442;28;20323;-32
2024/01/28 05:24:15;;;;;;;7.13;3.10;;;2.70;1.00;;;;;;5227956;28;20351;-32
2024/01/28 05:26:46;;;;;;;5.43;2.80;;;2.60;1.50;;;;;;5231786;28;20036;-33
2024/01/28 05:29:18;;;;;;;4.45;2.80;;;2.70;3.50;;;;;;5218532;28;20299;-33
2024/01/28 05:31:51;;;;;;;6.05;2.70;;;2.70;1.00;;;;;;5236306;28;20024;-33
2024/01/28 05:34:23;;;;;;;7.38;2.75;;;2.70;11.10;;;;;;5242900;28;20034;-32
2024/01/28 05:36:54;;;;;;;5.80;2.70;;;2.60;5.30;;;;;;5228803;28;20036;-32
2024/01/28 05:39:25;;;;;;;6.97;3.10;;;2.60;31.20;;;;;;5245413;28;20234;-32
2024/01/28 05:41:57;;;;;;;4.88;2.60;;;2.60;16.90;;;;;;5223606;28;20323;-32
2024/01/28 05:44:28;;;;;;;6.40;2.55;;;2.70;22.30;;;;;;5238784;28;20024;-32
2024/01/28 05:46:59;;;;;;;5.65;2.40;;;2.70;23.00;;;;;;5243978;28;20028;-32
2024/01/28 05:49:30;;;;;;;5.55;2.83;;;2.70;9.60;;;;;;5212620;28;20036;-32
2024/01/28 05:52:01;;;;;;;5.10;2.95;;;2.60;11.80;;;;;;5242697;28;20024;-32
2024/01/28 05:54:33;;;;;;;5.43;2.53;;;2.60;22.70;;;;;;5240104;28;20256;-32
2024/01/28 05:57:04;;;;;;;5.35;2.33;;;2.60;28.40;;;;;;5241897;28;20038;-32
2024/01/28 05:59:36;;;;;;;5.72;3.13;;;2.50;7.50;;;;;;5226220;28;20035;-32
2024/01/28 06:02:07;;;;;;;6.53;3.08;;;2.50;22.60;;;;;;5247142;28;20558;-32
2024/01/28 06:04:38;;;;;;;8.13;2.75;;;2.40;14.60;;;;;;5246810;28;20237;-33
2024/01/28 06:07:10;;;;;;;7.47;2.97;;;2.40;47.20;;;;;;5226202;28;20062;-32
2024/01/28 06:09:41;;;;;;;6.93;3.00;;;2.40;19.10;;;;;;5239643;28;20349;-32
2024/01/28 06:12:12;;;;;;;9.07;3.22;;;2.30;17.60;;;;;;5250390;28;20024;-32
2024/01/28 06:18:11;;;;;;;10.80;3.13;;;2.30;22.20;;;;;;5217005;28;20028;-32
2024/01/28 06:20:42;;;;;;;8.80;3.95;;;2.30;1.30;;;;;;5238795;28;20032;-33
2024/01/28 06:23:14;;;;;;;8.30;2.97;;;2.30;1.00;;;;;;5246516;28;20034;-32
2024/01/28 06:25:45;;;;;;;7.05;3.28;;;2.40;1.00;;;;;;5229066;28;20028;-33
2024/01/28 06:28:16;;;;;;;9.15;3.05;;;2.40;40.70;;;;;;5237495;28;20031;-32
2024/01/28 06:30:47;;;;;;;6.40;3.10;;;2.40;11.30;;;;;;5242849;28;20195;-33
2024/01/28 06:33:18;;;;;;;7.63;2.90;;;2.40;26.60;;;;;;5253753;28;20152;-33
2024/01/28 06:35:50;;;;;;;8.40;2.90;;;2.40;11.50;;;;;;5246706;28;20368;-32
2024/01/28 06:38:21;;;;;;;7.72;2.80;;;2.40;14.00;;;;;;5247377;28;20149;-35
2024/01/28 06:40:52;;;;;;;7.93;3.60;;;2.40;32.30;;;;;;5250102;28;20138;-33
2024/01/28 06:43:26;;;;;;;8.18;3.22;;;2.40;34.10;;;;;;5238470;28;20038;-34
2024/01/28 06:45:59;;;;;;;6.72;2.90;;;2.40;11.70;;;;;;5246554;28;20302;-32
2024/01/28 06:48:31;;;;;;;5.20;3.17;;;2.50;31.30;;;;;;5249011;28;20300;-33
2024/01/28 06:51:05;;;;;;;5.15;3.38;;;2.60;84.30;;;;;;5248682;28;20047;-32
2024/01/28 06:53:37;;;;;;;9.50;3.42;;;2.60;27.60;;;;;;5249059;28;20028;-33
2024/01/28 06:56:08;;;;;;;6.20;3.20;;;2.70;73.70;;;;;;5247577;28;20023;-33
2024/01/28 06:58:42;;;;;;;11.23;4.18;;;2.80;63.70;;;;;;5242063;28;20040;-33
2024/01/28 07:01:13;;;;;;;7.90;3.70;;;2.90;25.90;;;;;;5250185;28;20039;-32
2024/01/28 07:03:44;;;;;;;5.75;3.15;;;3.10;14.70;;;;;;5259591;28;20429;-34
2024/01/28 07:06:15;;;;;;;6.90;3.20;;;3.40;1.00;;;;;;5256262;28;20028;-33
2024/01/28 07:08:47;;;;;;;6.68;3.15;;;3.60;1.00;;;;;;5240106;28;20044;-32
2024/01/28 07:11:19;;;;;;;5.28;2.38;;;3.80;1.00;;;;;;5247194;28;20039;-33
2024/01/28 07:13:50;;;;;;;7.93;3.15;;;3.90;1.00;;;;;;5258891;28;20026;-33
2024/01/28 07:16:21;;;;;;;5.72;3.45;;;4.10;1.00;;;;;;5252961;28;20059;-32
2024/01/28 07:18:53;;;;;;;4.05;2.78;;;4.20;1.00;;;;;;5248338;28;20044;-33
2024/01/28 07:21:24;;;;;;;5.93;3.08;;;4.40;1.00;;;;;;5246795;28;20028;-32
2024/01/28 07:23:55;;;;;;;5.85;3.20;;;4.50;1.00;;;;;;5256687;28;20201;-32
2024/01/28 07:26:26;;;;;;;5.85;3.15;;;4.70;1.00;;;;;;5257723;28;20377;-33
2024/01/28 07:28:57;;;;;;;4.30;2.95;;;4.80;1.00;;;;;;5240008;28;20223;-35
2024/01/28 07:31:29;;;;;;;6.57;2.92;;;5.00;1.00;;;;;;5255245;28;20041;-32
2024/01/28 07:34:01;;;;;;;7.63;3.05;;;5.00;1.00;;;;;;5266126;28;20243;-32
2024/01/28 07:36:32;;;;;;;7.57;3.85;;;5.00;1.00;;;;;;5271548;28;20024;-32
2024/01/28 07:39:06;;;;;;;8.93;3.15;;;5.10;1.00;;;;;;5238188;28;20213;-32
2024/01/28 07:41:38;;;;;;;5.05;3.10;;;5.30;1.00;;;;;;5229118;28;20036;-33
2024/01/28 07:44:09;;;;;;;6.60;3.40;;;5.20;1.00;;;;;;5227028;28;20306;-32
2024/01/28 07:46:40;;;;;;;8.05;3.47;;;5.60;1.00;;;;;;5230793;28;20038;-32
2024/01/28 07:49:12;;;;;;;7.22;3.47;;;5.80;1.00;;;;;;5247566;28;20032;-32
2024/01/28 07:51:43;;;;;;;6.55;3.05;;;6.10;1.00;;;;;;5220217;28;20036;-31
2024/01/28 07:54:14;;;;;;;7.22;2.78;;;6.50;1.00;;;;;;5220355;28;20328;-32
2024/01/28 07:56:45;;;;;;;6.68;2.72;;;6.80;1.00;;;;;;5222407;28;20392;-35
2024/01/28 07:59:17;;;;;;;5.85;2.60;;;6.90;1.00;;;;;;5238640;27;20250;-35
2024/01/28 08:01:48;;;;;;;13.45;2.90;;;7.10;1.00;;;;;;5231028;28;20039;-35
2024/01/28 08:04:19;;;;;;;4.50;2.35;;;7.20;1.00;;;;;;5244570;28;20024;-34
2024/01/28 08:06:50;;;;;;;7.18;2.80;;;7.10;1.00;;;;;;5248110;28;20335;-35
2024/01/28 08:09:22;;;;;;;5.18;2.58;;;7.00;1.00;;;;;;5248406;28;20035;-35
2024/01/28 08:11:53;;;;;;;7.32;2.50;;;7.20;1.00;;;;;;5209662;28;20039;-37
2024/01/28 08:14:27;;;;;;;8.73;3.00;;;7.20;1.00;;;;;;5231539;28;20276;-34
2024/01/28 08:16:58;;;;;;;7.20;2.80;;;7.40;1.00;;;;;;5236283;28;20039;-36
2024/01/28 08:19:31;;;;;;;5.63;2.72;;;7.20;1.00;;;;;;5242396;28;20293;-36
2024/01/28 08:22:03;;;;;;;6.43;2.58;;;7.50;1.00;;;;;;5229946;28;20035;-36
2024/01/28 08:24:34;;;;;;;6.78;3.00;;;7.50;1.00;;;;;;5225127;28;20033;-36
2024/01/28 08:27:05;;;;;;;5.45;2.40;;;7.60;1.00;;;;;;5237963;28;20364;-37
2024/01/28 08:29:37;;;;;;;6.43;2.85;;;7.70;1.00;;;;;;5244196;28;20036;-36
2024/01/28 08:32:08;;;;;;;6.50;3.15;;;8.00;1.00;;;;;;5230531;28;20298;-36
2024/01/28 08:34:39;;;;;;;4.68;2.65;;;7.60;1.00;;;;;;5242517;28;20303;-36
2024/01/28 08:37:10;;;;;;;6.90;2.95;;;7.80;1.00;;;;;;5246734;28;20406;-37
2024/01/28 08:39:42;;;;;;;4.05;2.65;;;8.10;1.00;;;;;;5235052;28;20277;-36
2024/01/28 08:42:13;;;;;;;3.83;2.50;;;8.40;1.00;;;;;;5230661;28;20032;-33
2024/01/28 08:44:46;;;;;;;6.45;3.00;;;8.80;1.00;;;;;;5229833;28;20125;-33
2024/01/28 08:47:17;;;;;;;6.93;2.45;;;8.60;1.00;;;;;;5245001;28;20254;-32
2024/01/28 08:49:48;;;;;;;5.35;2.90;;;8.90;1.00;;;;;;5248431;28;20028;-32
2024/01/28 08:52:21;;;;;;;7.25;2.75;;;8.70;1.00;;;;;;5226353;28;20031;-32
2024/01/28 08:54:52;;;;;;;5.78;2.70;;;9.00;1.00;;;;;;5160872;28;20164;-32
2024/01/28 08:57:24;;;;;;;8.00;3.10;;;9.20;1.00;;;;;;5235420;28;20082;-32
2024/01/28 08:59:55;;;;;;;5.40;2.40;;;9.00;1.00;;;;;;5239012;28;20040;-36
2024/01/28 09:02:27;;;;;;;6.63;2.75;;;9.20;1.00;;;;;;5236815;28;20050;-32
2024/01/28 09:04:58;;;;;;;6.63;3.13;;;8.90;1.00;;;;;;5237868;28;20308;-33
2024/01/28 09:07:29;;;;;;;4.22;3.03;;;9.20;1.00;;;;;;5216123;28;20039;-32
2024/01/28 09:10:00;;;;;;;8.70;2.78;;;9.70;1.00;;;;;;5236637;28;20230;-32
2024/01/28 09:12:32;;;;;;;7.80;3.10;;;9.90;1.00;;;;;;5234768;28;20218;-31
2024/01/28 09:15:03;;;;;;;6.68;3.00;;;9.50;1.00;;;;;;5228364;28;20459;-32
2024/01/28 09:17:34;;;;;;;6.43;3.20;;;9.70;1.00;;;;;;5241504;28;20345;-32
2024/01/28 09:20:06;;;;;;;6.28;2.72;;;10.10;1.00;;;;;;5247614;28;20023;-32
2024/01/28 09:22:38;;;;;;;9.45;3.22;;;10.30;1.00;;;;;;5245412;28;20272;-33
2024/01/28 09:25:09;;;;;;;4.75;2.67;;;10.20;1.00;;;;;;5232412;28;20035;-32
2024/01/28 09:27:41;;;;;;;5.50;2.90;;;10.10;1.00;;;;;;5224173;28;20309;-32
2024/01/28 09:30:12;;;;;;;7.32;3.03;;;10.20;1.00;;;;;;5242402;28;20239;-33
2024/01/28 09:32:43;;;;;;;7.15;2.90;;;10.20;1.00;;;;;;5246284;28;20032;-33
2024/01/28 09:35:15;;;;;;;6.88;3.15;;;10.70;1.00;;;;;;5221074;28;20062;-32
2024/01/28 09:37:46;;;;;;;9.65;3.30;;;11.00;1.00;;;;;;5238411;28;20315;-31
2024/01/28 09:40:18;;;;;;;8.27;3.42;;;11.70;1.00;;;;;;5235704;28;20020;-33
2024/01/28 09:42:59;;;;;;;5.35;3.05;;;12.30;1.00;;;;;;5241766;28;20245;-32
2024/01/28 09:45:31;;;;;;;5.47;3.20;;;12.30;1.00;;;;;;5226502;28;20024;-32
2024/01/28 09:48:02;;;;;;;7.68;2.83;;;12.40;1.00;;;;;;5244974;28;20042;-32
2024/01/28 09:50:33;;;;;;;7.22;3.55;;;12.20;1.00;;;;;;5247901;28;20020;-32
2024/01/28 09:53:04;;;;;;;5.65;3.33;;;12.20;1.00;;;;;;5244236;28;20113;-33
2024/01/28 09:55:36;;;;;;;8.50;3.40;;;12.50;1.00;;;;;;5239669;28;20028;-33
2024/01/28 09:58:08;;;;;;;8.27;3.40;;;12.60;1.00;;;;;;5255493;28;20043;-31
2024/01/28 10:00:41;;;;;;;5.20;2.80;;;12.30;1.00;;;;;;5218720;28;20357;-31
2024/01/28 10:03:12;;;;;;;5.53;2.97;;;12.70;1.00;;;;;;5271144;28;20036;-31
2024/01/28 10:05:43;;;;;;;7.43;3.28;;;13.00;1.00;;;;;;5245982;28;20049;-33
2024/01/28 10:08:14;;;;;;;9.48;4.25;;;13.40;1.00;;;;;;5242594;28;20051;-32
2024/01/28 10:10:46;;;;;;;7.38;4.10;;;13.90;1.00;;;;;;5244819;28;20046;-37
2024/01/28 10:13:18;;;;;;;5.30;2.70;;;14.10;1.00;;;;;;5265700;28;20024;-31
2024/01/28 10:15:58;;;;;;;8.15;2.70;;;13.80;1.00;;;;;;5251359;28;20238;-33
2024/01/28 10:18:30;;;;;;;5.88;3.08;;;14.10;1.00;;;;;;5260649;28;20354;-32
2024/01/28 10:21:01;;;;;;;5.10;2.67;;;14.70;1.00;;;;;;5273073;27;20023;-31
2024/01/28 10:23:36;;;;;;;7.65;3.60;;;15.10;1.00;;;;;;5275773;28;20031;-31
2024/01/28 10:26:08;;;;;;;5.15;2.85;;;15.80;1.00;;;;;;5275842;28;20031;-32
2024/01/28 10:28:40;;;;;;;6.03;3.67;;;16.00;1.00;;;;;;5270071;28;20402;-32
2024/01/28 10:31:11;;;;;;;8.20;2.72;;;16.00;1.00;;;;;;5250009;28;20047;-31
2024/01/28 10:33:42;;;;;;;7.45;3.72;;;16.10;1.00;;;;;;5270189;28;20028;-32
2024/01/28 10:36:16;;;;;;;6.70;3.47;;;16.10;1.00;;;;;;5259844;28;20043;-33
2024/01/28 10:38:48;;;;;;;6.13;3.33;;;16.70;1.00;;;;;;5274422;28;20038;-33
2024/01/28 10:41:20;;;;;;;7.20;3.40;;;17.10;1.00;;;;;;5276073;28;20062;-32
2024/01/28 10:44:08;;;;;;;4.25;2.97;;;17.30;1.00;;;;;;5273429;28;20290;-32
2024/01/28 10:46:42;;;;;;;6.53;3.40;;;16.80;1.00;;;;;;5269059;28;20035;-32
2024/01/28 10:49:16;;;;;;;6.95;3.38;;;16.50;1.00;;;;;;5272853;28;20192;-31
2024/01/28 10:51:51;;;;;;;4.25;3.20;;;17.10;1.00;;;;;;5273795;28;20323;-31
2024/01/28 10:54:23;;;;;;;4.18;2.53;;;18.00;1.00;;;;;;5272467;28;20252;-32
2024/01/28 10:56:55;;;;;;;5.80;3.65;;;18.00;1.00;;;;;;5272209;28;20391;-31
2024/01/28 10:59:27;;;;;;;5.78;2.72;;;18.00;1.00;;;;;;5270051;28;20055;-31
2024/01/28 11:01:58;;;;;;;6.15;3.88;;;17.60;1.00;;;;;;5248432;28;20034;-31
2024/01/28 11:04:30;;;;;;;6.78;3.33;;;17.20;1.00;;;;;;5252568;28;20027;-32
2024/01/28 11:07:02;;;;;;;6.97;3.47;;;17.40;1.00;;;;;;5235039;28;20082;-32
2024/01/28 11:09:35;;;;;;;7.50;3.60;;;17.20;1.00;;;;;;5253034;28;20354;-36
2024/01/28 11:12:06;;;;;;;6.18;3.70;;;17.30;1.00;;;;;;5250887;28;20042;-32
2024/01/28 11:14:38;;;;;;;6.78;3.63;;;17.20;1.00;;;;;;5252772;28;20050;-32
2024/01/28 11:17:10;;;;;;;7.22;3.65;;;17.60;1.00;;;;;;5238295;28;20287;-32
2024/01/28 11:19:42;;;;;;;6.47;4.10;;;17.20;1.00;;;;;;5244270;28;20031;-31
2024/01/28 11:22:17;;;;;;;7.15;3.92;;;17.00;1.00;;;;;;5240666;28;22489;-31
2024/01/28 11:24:52;;;;;;;7.90;3.65;;;16.10;1.00;;;;;;5242619;28;20444;-32
2024/01/28 11:27:29;;;;;;;8.05;3.45;;;16.80;1.00;;;;;;5251934;28;20040;-31
2024/01/28 11:30:02;;;;;;;7.35;4.93;;;16.80;1.00;;;;;;5248653;28;20284;-32
2024/01/28 11:32:34;;;;;;;10.38;4.85;;;17.20;1.00;;;;;;5252173;28;20028;-32
2024/01/28 11:35:06;;;;;;;7.10;4.10;;;16.30;1.00;;;;;;5256486;28;20008;-30
2024/01/28 11:37:51;;;;;;;7.15;4.40;;;16.10;1.00;;;;;;5256357;28;20150;-32
2024/01/28 11:40:23;;;;;;;;;;;16.60;1.00;;;;;;5257689;28;20380;-32
2024/01/28 11:42:55;;;;;;;6.85;3.42;;;16.60;1.00;;;;;;5255488;28;19900;-32
2024/01/28 11:45:26;;;;;;;7.90;3.70;;;16.80;1.00;;;;;;5252005;28;20338;-31
2024/01/28 11:47:58;;;;;;;8.32;3.58;;;16.30;1.00;;;;;;5255264;28;20422;-31
2024/01/28 11:50:29;;;;;;;8.20;3.50;;;15.70;1.00;;;;;;5251353;28;20034;-32
2024/01/28 11:53:00;;;;;;;8.50;3.78;;;15.60;1.00;;;;;;5256185;28;20219;-32
2024/01/28 11:55:34;;;;;;;7.32;4.38;;;14.70;1.00;;;;;;5248381;28;20032;-32
2024/01/28 11:58:05;;;;;;;7.90;4.50;;;14.50;1.00;;;;;;5245215;28;20399;-32
2024/01/28 12:00:36;;;;;;;8.05;4.05;;;14.80;1.40;;;;;;5251757;28;20399;-33
2024/01/28 12:03:08;;;;;;;8.77;4.60;;;15.80;2.10;;;;;;5243329;28;20028;-32
2024/01/28 12:05:39;;;;;;;7.20;4.28;;;16.40;7.30;;;;;;5236924;28;20197;-31
2024/01/28 12:08:10;;;;;;;9.55;4.70;;;16.00;5.20;;;;;;5251649;28;20531;-34
2024/01/28 12:10:41;;;;;;;8.60;4.32;;;16.40;12.30;;;;;;5241768;28;20027;-31
2024/01/28 12:13:12;;;;;;;9.07;4.25;;;16.30;4.40;;;;;;5255927;28;20265;-31
2024/01/28 12:15:44;;;;;;;8.13;4.03;;;15.80;13.00;;;;;;5240752;28;20024;-31
2024/01/28 12:18:15;;;;;;;9.40;4.75;;;17.00;4.10;;;;;;5252868;28;20028;-32
2024/01/28 12:20:50;;;;;;;6.90;3.72;;;17.70;5.90;;;;;;5255323;28;20031;-32
2024/01/28 12:23:22;;;;;;;5.95;3.53;;;16.70;1.00;;;;;;5256256;28;20034;-32
2024/01/28 12:25:53;;;;;;;7.28;4.45;;;16.70;1.00;;;;;;5250584;28;20025;-31
2024/01/28 12:28:25;;;;;;;7.43;4.20;;;17.70;1.00;;;;;;5249463;28;20066;-32
2024/01/28 12:30:56;;;;;;;5.70;4.07;;;18.50;1.00;;;;;;5239711;28;20342;-33
2024/01/28 12:33:29;;;;;;;12.93;5.47;;;17.70;1.00;;;;;;5256915;28;20036;-37
2024/01/28 12:36:00;;;;;;;9.82;5.15;;;18.20;1.00;;;;;;5255155;28;20034;-32
2024/01/28 12:38:32;;;;;;;6.53;4.30;;;18.30;1.00;;;;;;5256024;28;20034;-31
2024/01/28 12:41:03;;;;;;;7.75;4.18;;;18.80;1.00;;;;;;5240340;28;20252;-33
2024/01/28 12:43:40;;;;;;;9.65;4.20;;;18.00;1.00;;;;;;5221698;28;20263;-31
2024/01/28 12:46:11;;;;;;;11.05;4.43;;;15.90;1.00;;;;;;5246080;28;20043;-33
2024/01/28 12:48:42;;;;;;;10.90;4.95;;;15.50;1.30;;;;;;5249820;28;20035;-32
2024/01/28 12:51:14;;;;;;;8.15;4.20;;;15.70;1.00;;;;;;5249813;28;20024;-32
2024/01/28 12:53:51;;;;;;;8.15;4.50;;;16.10;2.20;;;;;;5249074;28;20028;-33
2024/01/28 12:56:22;;;;;;;8.23;5.00;;;16.40;1.00;;;;;;5248432;28;20027;-33
2024/01/28 12:58:54;;;;;;;11.57;4.50;;;15.60;1.00;;;;;;5249504;28;20327;-32
2024/01/28 13:01:25;;;;;;;8.43;4.70;;;15.40;1.00;;;;;;5246257;28;20032;-32
2024/01/28 13:03:59;;;;;;;8.98;4.13;;;15.30;1.00;;;;;;5248285;28;20035;-32
2024/01/28 13:06:30;;;;;;;11.40;4.22;;;13.30;3.70;;;;;;5247412;28;20407;-32
2024/01/28 13:09:01;;;;;;;9.60;4.80;;;13.80;13.30;;;;;;5246919;28;20032;-31
2024/01/28 13:11:32;;;;;;;9.02;4.88;;;13.20;7.50;;;;;;5250130;28;20279;-33
2024/01/28 13:14:04;;;;;;;11.07;3.80;;;12.90;3.80;;;;;;5250290;28;20170;-33
2024/01/28 13:16:36;;;;;;;7.45;4.55;;;12.90;14.90;;;;;;5240291;28;20460;-32
2024/01/28 13:19:08;;;;;;;7.75;4.00;;;12.90;17.20;;;;;;5253509;28;20339;-32
2024/01/28 13:21:39;;;;;;;7.53;4.93;;;12.50;16.20;;;;;;5247566;28;20043;-33
2024/01/28 13:24:10;;;;;;;11.02;4.60;;;11.80;16.20;;;;;;5226529;28;20239;-32
2024/01/28 13:26:41;;;;;;;8.02;4.85;;;11.60;21.40;;;;;;5235899;28;20054;-32